Portada
METAR-TAF:

METAR-TAF

Aeropuertos :

Aeropuerto de Génova

Génova, Italia

latitud: 44-25N, longitud: 008-51E, altitud: 2 m

Observación

El informe se hizo hace 35 minutos, a las 03:50 UTC
Viento 9 kt del norte, variando entre norte y noreste
Temperatura 6°C
Humedad 56%
Presión 1020 hPa
Visibilidad 10 km o más
sin nubes por debajo de 1500 m y sin presencia de cumulonimbus.

METAR: LIMJ 180350Z 01009KT 350V050 CAVOK 06/M02 Q1020

Hora: 05:25 (04:25 UTC)

Pronóstico

El informe se hizo hace 5 horas y 25 minutos, a las 23:00 UTC
Pronóstico válido del 18 a las 00 UTC al 18 a las 24 UTC
Viento 10 kt del noreste
Visibilidad 10 km o más
Escasas nubes a una altura de 4000 ft

TAF: LIMJ 172300Z 1800/1824 05010KT 9999 FEW040

Observaciones y pronósticos meteorológicos de más de 4000 aeropuertos (mensajes METAR y TAF).

Los puntos amarillos y rojos representan las estaciones disponibles.

Ponga el ratón en el punto deseado para ver el nombre de la estación.

Haga clic para ver las observaciones y los pronósticos meteorológicos.

Para cambiar el mapa : haga clic en los botones verdes con una cruz de color negro para hacer un zoom, en el botón verde con un guión para alejar o en las flechas verdes para mapas adyacentes.


METAR-TAF: